createdAt,value
2019-02-24T00:00:51.341Z,37.10
2019-02-24T00:03:19.730Z,37.10
2019-02-24T00:05:46.037Z,37.60
2019-02-24T00:08:12.415Z,37.20
2019-02-24T00:10:38.696Z,37.20
2019-02-24T00:13:05.536Z,37.30
2019-02-24T00:15:31.914Z,37.30
2019-02-24T00:17:58.319Z,37.30
2019-02-24T00:20:24.630Z,37.90
2019-02-24T00:22:50.934Z,37.40
2019-02-24T00:25:17.216Z,37.50
2019-02-24T00:27:43.519Z,37.50
2019-02-24T00:30:09.890Z,37.60
2019-02-24T00:32:36.162Z,37.70
2019-02-24T00:35:03.978Z,37.90
2019-02-24T00:37:30.260Z,37.90
2019-02-24T00:39:56.555Z,37.90
2019-02-24T00:42:22.836Z,37.80
2019-02-24T00:44:49.131Z,37.90
2019-02-24T00:47:15.401Z,37.90
2019-02-24T00:49:42.039Z,37.90
2019-02-24T00:52:08.346Z,38.00
2019-02-24T00:54:34.749Z,37.90
2019-02-24T00:57:01.234Z,38.00
2019-02-24T00:59:27.973Z,38.10
2019-02-24T01:01:54.348Z,38.00
2019-02-24T01:04:20.625Z,38.10
2019-02-24T01:06:46.921Z,38.20
2019-02-24T01:09:13.218Z,38.20
2019-02-24T01:11:39.930Z,38.30
2019-02-24T01:14:06.214Z,38.30
2019-02-24T01:16:32.774Z,38.30
2019-02-24T01:18:59.051Z,38.30
2019-02-24T01:21:25.374Z,38.30
2019-02-24T01:23:51.751Z,38.40
2019-02-24T01:26:18.060Z,38.40
2019-02-24T01:28:44.434Z,38.40
2019-02-24T01:31:10.726Z,38.50
2019-02-24T01:33:37.002Z,38.60
2019-02-24T01:36:03.758Z,38.70
2019-02-24T01:38:30.031Z,38.70
2019-02-24T01:40:56.734Z,38.80
2019-02-24T01:43:23.122Z,38.90
2019-02-24T01:45:49.410Z,38.80
2019-02-24T01:48:15.746Z,38.90
2019-02-24T01:50:42.023Z,38.90
2019-02-24T01:53:09.233Z,38.90
2019-02-24T01:55:35.510Z,38.90
2019-02-24T01:58:01.811Z,38.90
2019-02-24T02:00:28.190Z,38.90
2019-02-24T02:02:54.486Z,39.00
2019-02-24T02:05:21.923Z,38.90
2019-02-24T02:07:48.731Z,39.00
2019-02-24T02:10:15.095Z,39.10
2019-02-24T02:12:41.400Z,39.10
2019-02-24T02:15:08.383Z,39.20
2019-02-24T02:17:35.171Z,39.20
2019-02-24T02:20:01.651Z,39.30
2019-02-24T02:22:28.099Z,39.30
2019-02-24T02:24:54.510Z,39.30
2019-02-24T02:27:20.813Z,39.80
2019-02-24T02:29:47.101Z,39.00
2019-02-24T02:32:13.487Z,39.40
2019-02-24T02:37:07.168Z,39.40
2019-02-24T02:39:34.042Z,39.40
2019-02-24T02:42:00.344Z,39.50
2019-02-24T02:44:26.610Z,39.60
2019-02-24T02:46:53.195Z,39.60
2019-02-24T02:49:19.630Z,39.60
2019-02-24T02:51:46.257Z,39.50
2019-02-24T02:54:12.535Z,39.60
2019-02-24T02:56:39.235Z,39.60
2019-02-24T02:59:05.526Z,39.60
2019-02-24T03:01:32.103Z,39.60
2019-02-24T03:03:58.429Z,39.60
2019-02-24T03:06:31.119Z,40.10
2019-02-24T03:08:57.510Z,39.80
2019-02-24T03:11:23.895Z,39.80
2019-02-24T03:13:50.199Z,40.00
2019-02-24T03:16:18.480Z,40.00
2019-02-24T03:18:45.132Z,40.60
2019-02-24T03:21:11.514Z,40.10
2019-02-24T03:23:37.811Z,40.10
2019-02-24T03:26:04.194Z,40.20
2019-02-24T03:28:30.483Z,40.20
2019-02-24T03:30:57.084Z,40.20
2019-02-24T03:33:23.396Z,40.30
2019-02-24T03:35:50.220Z,40.30
2019-02-24T03:38:16.574Z,40.20
2019-02-24T03:40:42.842Z,40.30
2019-02-24T03:43:09.226Z,40.30
2019-02-24T03:45:35.531Z,40.30
2019-02-24T03:48:01.905Z,40.30
2019-02-24T03:50:28.198Z,40.30
2019-02-24T03:52:54.576Z,40.30
2019-02-24T03:55:21.079Z,40.30
2019-02-24T03:57:47.556Z,40.20
2019-02-24T04:00:13.851Z,40.30
2019-02-24T04:02:40.329Z,40.30
2019-02-24T04:05:06.867Z,40.70
2019-02-24T04:07:33.484Z,40.60
2019-02-24T04:09:59.916Z,40.50
2019-02-24T04:12:26.281Z,40.50
2019-02-24T04:14:52.584Z,40.40
2019-02-24T04:17:19.320Z,40.90
2019-02-24T04:19:45.699Z,40.40
2019-02-24T04:22:12.119Z,40.40
2019-02-24T04:24:38.400Z,40.40
2019-02-24T04:27:04.799Z,40.40
2019-02-24T04:29:31.174Z,40.30
2019-02-24T04:31:57.466Z,40.80
2019-02-24T04:34:23.743Z,40.40
2019-02-24T04:36:50.053Z,40.50
2019-02-24T04:39:16.326Z,40.40
2019-02-24T04:41:42.670Z,40.50
2019-02-24T04:44:09.368Z,40.50
2019-02-24T04:46:35.658Z,40.50
2019-02-24T04:49:01.926Z,40.60
2019-02-24T04:51:28.227Z,40.70
2019-02-24T04:53:54.899Z,40.80
2019-02-24T04:56:21.248Z,40.80
2019-02-24T04:58:47.611Z,40.80
2019-02-24T05:01:13.907Z,40.80
2019-02-24T05:03:40.173Z,40.80
2019-02-24T05:06:06.465Z,40.80
2019-02-24T05:08:32.772Z,40.70
2019-02-24T05:11:00.250Z,40.70
2019-02-24T05:13:26.547Z,40.60
2019-02-24T05:15:52.810Z,40.60
2019-02-24T05:18:19.216Z,40.70
2019-02-24T05:20:45.506Z,40.70
2019-02-24T05:23:11.793Z,40.80
2019-02-24T05:25:38.078Z,40.80
2019-02-24T05:28:04.475Z,40.80
2019-02-24T05:30:30.740Z,40.80
2019-02-24T05:32:57.146Z,40.80
2019-02-24T05:35:23.755Z,40.80
2019-02-24T05:37:50.172Z,40.90
2019-02-24T05:40:16.827Z,40.80
2019-02-24T05:42:43.111Z,40.80
2019-02-24T05:45:09.498Z,40.80
2019-02-24T05:47:36.127Z,40.90
2019-02-24T05:50:03.136Z,40.90
2019-02-24T05:52:29.707Z,40.90
2019-02-24T05:54:56.013Z,41.00
2019-02-24T05:57:22.282Z,41.10
2019-02-24T05:59:54.953Z,41.10
2019-02-24T06:02:16.861Z,41.10
2019-02-24T06:04:43.521Z,41.20
2019-02-24T06:07:10.015Z,41.20
2019-02-24T06:09:36.308Z,41.10
2019-02-24T06:12:02.787Z,41.10
2019-02-24T06:14:29.086Z,41.10
2019-02-24T06:16:55.471Z,41.10
2019-02-24T06:19:22.163Z,41.10
2019-02-24T06:21:49.623Z,41.10
2019-02-24T06:24:15.897Z,41.00
2019-02-24T06:26:42.207Z,41.10
2019-02-24T06:29:08.476Z,41.00
2019-02-24T06:31:35.981Z,41.10
2019-02-24T06:34:02.461Z,41.10
2019-02-24T06:36:29.195Z,41.10
2019-02-24T06:38:55.486Z,41.00
2019-02-24T06:41:21.771Z,41.00
2019-02-24T06:43:48.147Z,41.10
2019-02-24T06:46:14.441Z,41.00
2019-02-24T06:48:40.953Z,40.90
2019-02-24T06:51:09.255Z,41.00
2019-02-24T06:53:35.621Z,41.00
2019-02-24T06:56:02.017Z,41.00
2019-02-24T06:58:28.740Z,41.10
2019-02-24T07:00:55.105Z,41.00
2019-02-24T07:03:21.699Z,41.10
2019-02-24T07:05:47.964Z,41.40
2019-02-24T07:08:14.365Z,41.30
2019-02-24T07:10:40.743Z,41.30
2019-02-24T07:13:07.043Z,41.40
2019-02-24T07:15:33.324Z,41.40
2019-02-24T07:17:59.714Z,41.40
2019-02-24T07:20:26.070Z,41.40
2019-02-24T07:22:52.756Z,41.50
2019-02-24T07:25:19.403Z,41.60
2019-02-24T07:27:46.142Z,41.50
2019-02-24T07:30:12.779Z,41.50
2019-02-24T07:32:39.061Z,41.50
2019-02-24T07:35:05.875Z,41.60
2019-02-24T07:37:32.152Z,41.60
2019-02-24T07:39:58.914Z,41.50
2019-02-24T07:42:25.454Z,41.60
2019-02-24T07:44:51.746Z,41.60
2019-02-24T07:47:18.320Z,41.60
2019-02-24T07:49:44.968Z,41.60
2019-02-24T07:52:11.358Z,41.70
2019-02-24T07:54:37.658Z,41.70
2019-02-24T07:57:03.931Z,41.70
2019-02-24T07:59:30.228Z,41.60
2019-02-24T08:01:56.503Z,41.60
2019-02-24T08:04:22.906Z,41.50
2019-02-24T08:06:49.295Z,41.40
2019-02-24T08:09:15.615Z,41.50
2019-02-24T08:11:41.911Z,41.50
2019-02-24T08:14:08.191Z,41.50
2019-02-24T08:16:34.807Z,41.50
2019-02-24T08:19:01.087Z,41.70
2019-02-24T08:21:27.518Z,42.00
2019-02-24T08:23:53.800Z,41.60
2019-02-24T08:26:20.439Z,41.60
2019-02-24T08:28:46.748Z,41.50
2019-02-24T08:31:13.047Z,41.50
2019-02-24T08:33:39.319Z,41.40
2019-02-24T08:36:06.066Z,41.50
2019-02-24T08:38:32.718Z,41.30
2019-02-24T08:40:59.053Z,41.30
2019-02-24T08:43:25.430Z,41.20
2019-02-24T08:45:51.744Z,41.00
2019-02-24T08:48:19.260Z,41.00
2019-02-24T08:50:45.819Z,41.00
2019-02-24T08:53:12.434Z,40.90
2019-02-24T08:55:39.076Z,40.80
2019-02-24T08:58:05.338Z,40.70
2019-02-24T09:00:31.943Z,40.80
2019-02-24T09:02:58.352Z,41.10
2019-02-24T09:05:24.880Z,41.90
2019-02-24T09:07:51.271Z,43.60
2019-02-24T09:10:17.660Z,45.20
2019-02-24T09:12:44.076Z,46.80
2019-02-24T09:15:12.855Z,47.20
2019-02-24T09:17:39.251Z,47.80
2019-02-24T09:20:08.417Z,47.30
2019-02-24T09:22:34.866Z,46.20
2019-02-24T09:25:03.251Z,44.30
2019-02-24T09:27:29.777Z,42.50
2019-02-24T09:29:56.515Z,41.50
2019-02-24T09:32:22.799Z,40.60
2019-02-24T09:34:49.370Z,39.70
2019-02-24T09:37:16.015Z,38.40
2019-02-24T09:39:42.300Z,37.90
2019-02-24T09:42:08.619Z,36.50
2019-02-24T09:44:34.991Z,35.90
2019-02-24T09:47:01.547Z,34.20
2019-02-24T09:49:27.923Z,32.60
2019-02-24T09:51:54.227Z,31.10
2019-02-24T09:54:20.585Z,30.90
2019-02-24T09:56:46.875Z,30.80
2019-02-24T09:59:13.148Z,30.00
2019-02-24T10:01:39.543Z,30.00
2019-02-24T10:04:05.818Z,29.90
2019-02-24T10:06:32.244Z,29.30
2019-02-24T10:08:58.510Z,29.20
2019-02-24T10:11:24.907Z,28.80
2019-02-24T10:13:51.353Z,28.60
2019-02-24T10:16:17.710Z,28.50
2019-02-24T10:18:44.354Z,28.10
2019-02-24T10:21:10.644Z,27.00
2019-02-24T10:23:37.189Z,25.90
2019-02-24T10:26:03.861Z,26.10
2019-02-24T10:28:30.150Z,25.90
2019-02-24T10:30:56.734Z,26.10
2019-02-24T10:33:23.222Z,26.00
2019-02-24T10:35:49.499Z,25.00
2019-02-24T10:38:15.997Z,25.20
2019-02-24T10:40:42.477Z,24.70
2019-02-24T10:43:08.882Z,24.70
2019-02-24T10:45:35.158Z,24.90
2019-02-24T10:48:01.647Z,24.90
2019-02-24T10:50:28.014Z,24.50
2019-02-24T10:52:54.289Z,23.90
2019-02-24T10:55:20.578Z,23.80
2019-02-24T10:57:47.191Z,24.00
2019-02-24T11:00:17.714Z,23.30
2019-02-24T11:02:44.091Z,22.00
2019-02-24T11:05:10.587Z,22.80
2019-02-24T11:07:37.218Z,23.00
2019-02-24T11:10:06.014Z,23.00
2019-02-24T11:12:32.850Z,22.30
2019-02-24T11:14:59.495Z,22.20
2019-02-24T11:17:25.866Z,22.20
2019-02-24T11:19:52.662Z,22.30
2019-02-24T11:22:19.034Z,22.40
2019-02-24T11:24:45.382Z,22.10
2019-02-24T11:27:11.688Z,21.60
2019-02-24T11:29:38.076Z,21.00
2019-02-24T11:32:05.542Z,20.60
2019-02-24T11:34:32.191Z,20.90
2019-02-24T11:36:58.467Z,20.90
2019-02-24T11:39:24.867Z,20.90
2019-02-24T11:41:51.245Z,20.90
2019-02-24T11:44:17.666Z,20.10
2019-02-24T11:46:43.991Z,20.50
2019-02-24T11:49:10.345Z,20.40
2019-02-24T11:51:36.914Z,19.80
2019-02-24T11:54:03.286Z,20.10
2019-02-24T11:56:29.882Z,19.80
2019-02-24T11:58:56.255Z,20.00
2019-02-24T12:01:22.964Z,19.90
2019-02-24T12:03:49.331Z,19.30
2019-02-24T12:06:15.735Z,18.80
2019-02-24T12:08:42.011Z,19.30
2019-02-24T12:11:08.895Z,19.30
2019-02-24T12:13:36.403Z,19.40
2019-02-24T12:16:04.143Z,19.40
2019-02-24T12:18:30.538Z,19.40
2019-02-24T12:20:56.849Z,19.10
2019-02-24T12:23:23.417Z,19.10
2019-02-24T12:25:49.844Z,19.10
2019-02-24T12:28:16.138Z,19.10
2019-02-24T12:30:42.519Z,18.80
2019-02-24T12:33:09.819Z,19.00
2019-02-24T12:35:36.403Z,18.90
2019-02-24T12:38:02.898Z,18.90
2019-02-24T12:40:29.475Z,18.80
2019-02-24T12:42:55.873Z,18.80
2019-02-24T12:45:22.444Z,18.70
2019-02-24T12:47:48.755Z,18.70
2019-02-24T12:50:16.333Z,18.50
2019-02-24T12:52:42.608Z,18.50
2019-02-24T12:55:09.503Z,18.10
2019-02-24T12:57:35.765Z,18.30
2019-02-24T13:00:04.940Z,18.30
2019-02-24T13:02:31.302Z,18.50
2019-02-24T13:04:58.007Z,18.40
2019-02-24T13:07:24.278Z,18.40
2019-02-24T13:09:50.582Z,18.30
2019-02-24T13:12:17.402Z,18.30
2019-02-24T13:14:44.041Z,18.10
2019-02-24T13:17:10.538Z,18.20
2019-02-24T13:19:37.118Z,18.20
2019-02-24T13:22:03.858Z,18.10
2019-02-24T13:24:30.494Z,18.00
2019-02-24T13:26:57.140Z,18.00
2019-02-24T13:29:23.526Z,18.00
2019-02-24T13:31:49.803Z,17.90
2019-02-24T13:34:16.100Z,17.90
2019-02-24T13:36:42.377Z,17.70
2019-02-24T13:39:09.923Z,17.70
2019-02-24T13:41:36.658Z,17.60
2019-02-24T13:44:03.612Z,17.60
2019-02-24T13:46:30.346Z,17.60
2019-02-24T13:48:56.747Z,17.50
2019-02-24T13:51:23.134Z,17.60
2019-02-24T13:53:49.435Z,17.50
2019-02-24T13:56:16.073Z,17.50
2019-02-24T13:58:42.344Z,17.60
2019-02-24T14:01:08.636Z,17.50
2019-02-24T14:03:35.769Z,17.40
2019-02-24T14:06:02.354Z,17.40
2019-02-24T14:08:28.958Z,17.60
2019-02-24T14:10:55.255Z,17.50
2019-02-24T14:13:22.623Z,17.90
2019-02-24T14:15:49.283Z,17.50
2019-02-24T14:18:15.687Z,17.40
2019-02-24T14:20:42.459Z,17.40
2019-02-24T14:23:08.731Z,17.40
2019-02-24T14:25:35.018Z,17.40
2019-02-24T14:28:01.292Z,17.70
2019-02-24T14:30:27.959Z,17.30
2019-02-24T14:32:54.586Z,17.30
2019-02-24T14:35:25.545Z,17.30
2019-02-24T14:37:51.910Z,17.10
2019-02-24T14:40:18.635Z,17.10
2019-02-24T14:42:45.111Z,17.20
2019-02-24T14:45:19.556Z,17.20
2019-02-24T14:47:46.435Z,17.10
2019-02-24T14:50:12.998Z,17.10
2019-02-24T14:52:39.804Z,17.00
2019-02-24T14:55:10.847Z,16.80
2019-02-24T14:57:37.248Z,16.90
2019-02-24T15:00:07.423Z,17.00
2019-02-24T15:02:42.170Z,16.80
2019-02-24T15:05:06.551Z,16.90
2019-02-24T15:07:33.265Z,17.10
2019-02-24T15:09:59.900Z,17.20
2019-02-24T15:12:26.634Z,17.30
2019-02-24T15:14:52.898Z,17.10
2019-02-24T15:17:19.506Z,17.40
2019-02-24T15:19:46.142Z,17.40
2019-02-24T15:22:12.797Z,17.40
2019-02-24T15:24:39.520Z,17.50
2019-02-24T15:27:05.919Z,17.60
2019-02-24T15:29:32.599Z,17.70
2019-02-24T15:31:58.887Z,17.80
2019-02-24T15:34:25.293Z,17.70
2019-02-24T15:36:51.725Z,17.80
2019-02-24T15:39:18.066Z,17.80
2019-02-24T15:41:44.763Z,17.80
2019-02-24T15:44:11.079Z,17.90
2019-02-24T15:46:37.438Z,18.00
2019-02-24T15:49:03.834Z,18.10
2019-02-24T15:51:30.203Z,18.20
2019-02-24T15:53:56.926Z,18.30
2019-02-24T15:56:23.209Z,18.40
2019-02-24T15:58:49.799Z,18.40
2019-02-24T16:01:16.435Z,18.40
2019-02-24T16:03:42.728Z,18.40
2019-02-24T16:06:09.103Z,18.50
2019-02-24T16:08:35.695Z,18.50
2019-02-24T16:11:02.176Z,18.50
2019-02-24T16:13:28.465Z,18.60
2019-02-24T16:15:55.029Z,18.70
2019-02-24T16:18:21.327Z,18.70
2019-02-24T16:20:47.767Z,18.70
2019-02-24T16:23:14.046Z,18.70
2019-02-24T16:25:40.666Z,18.60
2019-02-24T16:28:07.043Z,18.60
2019-02-24T16:30:33.732Z,18.60
2019-02-24T16:33:00.001Z,18.60
2019-02-24T16:35:26.402Z,18.70
2019-02-24T16:37:52.671Z,18.80
2019-02-24T16:40:24.527Z,19.00
2019-02-24T16:42:51.120Z,19.20
2019-02-24T16:45:17.724Z,19.30
2019-02-24T16:47:44.314Z,19.50
2019-02-24T16:50:12.987Z,19.70
2019-02-24T16:52:39.463Z,19.80
2019-02-24T16:55:08.447Z,19.90
2019-02-24T16:57:35.002Z,20.00
2019-02-24T17:00:04.915Z,20.10
2019-02-24T17:02:31.535Z,20.20
2019-02-24T17:04:57.808Z,20.40
2019-02-24T17:07:24.103Z,20.50
2019-02-24T17:09:51.580Z,20.70
2019-02-24T17:12:18.376Z,20.70
2019-02-24T17:14:44.646Z,21.00
2019-02-24T17:17:11.062Z,21.00
2019-02-24T17:19:37.387Z,21.10
2019-02-24T17:22:03.771Z,21.20
2019-02-24T17:24:30.052Z,21.20
2019-02-24T17:26:56.439Z,21.30
2019-02-24T17:29:22.715Z,21.40
2019-02-24T17:31:49.517Z,21.50
2019-02-24T17:34:15.789Z,21.70
2019-02-24T17:36:42.183Z,21.70
2019-02-24T17:39:08.650Z,21.80
2019-02-24T17:41:36.946Z,21.90
2019-02-24T17:44:03.630Z,21.90
2019-02-24T17:46:29.929Z,22.10
2019-02-24T17:48:56.322Z,22.20
2019-02-24T17:51:22.719Z,22.60
2019-02-24T17:53:49.091Z,22.30
2019-02-24T17:56:15.381Z,22.40
2019-02-24T17:58:42.030Z,22.50
2019-02-24T18:01:08.327Z,22.60
2019-02-24T18:03:39.455Z,22.70
2019-02-24T18:06:03.058Z,22.80
2019-02-24T18:08:29.321Z,22.90
2019-02-24T18:10:55.709Z,23.00
2019-02-24T18:13:21.983Z,23.00
2019-02-24T18:15:48.355Z,23.00
2019-02-24T18:18:14.671Z,23.00
2019-02-24T18:20:41.363Z,23.20
2019-02-24T18:23:08.109Z,23.80
2019-02-24T18:25:35.595Z,23.30
2019-02-24T18:28:02.386Z,23.40
2019-02-24T18:30:29.763Z,23.50
2019-02-24T18:32:56.154Z,23.50
2019-02-24T18:35:22.535Z,23.60
2019-02-24T18:37:48.926Z,23.70
2019-02-24T18:40:15.702Z,23.70
2019-02-24T18:42:42.126Z,23.80
2019-02-24T18:45:10.394Z,23.80
2019-02-24T18:47:37.042Z,23.90
2019-02-24T18:50:07.226Z,23.90
2019-02-24T18:52:33.737Z,24.00
2019-02-24T18:55:00.202Z,24.00
2019-02-24T18:57:26.987Z,24.00
2019-02-24T18:59:53.249Z,24.20
2019-02-24T19:02:19.550Z,24.20
2019-02-24T19:04:45.857Z,24.30
2019-02-24T19:07:12.515Z,24.40
2019-02-24T19:09:38.870Z,24.40
2019-02-24T19:12:05.152Z,24.70
2019-02-24T19:14:31.542Z,24.50
2019-02-24T19:16:58.679Z,24.70
2019-02-24T19:19:25.758Z,24.70
2019-02-24T19:21:52.374Z,24.70
2019-02-24T19:24:18.674Z,24.80
2019-02-24T19:26:44.976Z,24.80
2019-02-24T19:29:11.571Z,24.80
2019-02-24T19:31:37.950Z,24.90
2019-02-24T19:34:06.651Z,24.90
2019-02-24T19:36:32.418Z,25.00
2019-02-24T19:39:00.171Z,25.10
2019-02-24T19:41:26.537Z,25.10
2019-02-24T19:43:53.085Z,25.10
2019-02-24T19:46:19.372Z,25.20
2019-02-24T19:48:45.723Z,25.30
2019-02-24T19:51:12.007Z,25.30
2019-02-24T19:53:38.665Z,25.40
2019-02-24T19:56:04.975Z,25.40
2019-02-24T19:58:31.633Z,25.40
2019-02-24T20:00:57.929Z,25.50
2019-02-24T20:03:24.298Z,25.60
2019-02-24T20:05:50.606Z,25.70
2019-02-24T20:08:17.179Z,25.70
2019-02-24T20:10:43.576Z,26.20
2019-02-24T20:13:09.953Z,25.80
2019-02-24T20:15:36.278Z,25.90
2019-02-24T20:18:02.705Z,25.90
2019-02-24T20:20:29.312Z,26.00
2019-02-24T20:22:55.864Z,26.10
2019-02-24T20:25:22.670Z,26.10
2019-02-24T20:27:49.414Z,26.20
2019-02-24T20:30:26.904Z,26.20
2019-02-24T20:32:53.606Z,26.30
2019-02-24T20:35:20.213Z,26.30
2019-02-24T20:37:46.709Z,26.40
2019-02-24T20:40:13.294Z,26.40
2019-02-24T20:42:39.668Z,26.50
2019-02-24T20:45:09.282Z,26.60
2019-02-24T20:47:36.061Z,26.60
2019-02-24T20:50:05.392Z,26.60
2019-02-24T20:52:32.006Z,26.70
2019-02-24T20:54:58.299Z,26.70
2019-02-24T20:57:24.785Z,26.80
2019-02-24T20:59:51.196Z,26.80
2019-02-24T21:02:17.848Z,27.00
2019-02-24T21:04:44.484Z,27.10
2019-02-24T21:07:11.128Z,27.30
2019-02-24T21:09:37.513Z,27.40
2019-02-24T21:12:04.177Z,27.50
2019-02-24T21:14:31.669Z,27.50
2019-02-24T21:16:59.190Z,27.60
2019-02-24T21:19:26.899Z,27.60
2019-02-24T21:21:53.606Z,27.60
2019-02-24T21:24:20.153Z,27.60
2019-02-24T21:26:46.568Z,27.70
2019-02-24T21:29:13.056Z,27.70
2019-02-24T21:31:39.351Z,27.70
2019-02-24T21:34:05.634Z,27.90
2019-02-24T21:36:32.223Z,27.90
2019-02-24T21:38:58.961Z,28.00
2019-02-24T21:41:25.235Z,28.00
2019-02-24T21:43:51.821Z,28.00
2019-02-24T21:46:18.558Z,28.00
2019-02-24T21:48:45.210Z,28.10
2019-02-24T21:51:11.944Z,28.20
2019-02-24T21:53:38.687Z,28.30
2019-02-24T21:56:05.261Z,28.30
2019-02-24T21:58:31.575Z,28.30
2019-02-24T22:00:58.186Z,28.30
2019-02-24T22:03:24.486Z,28.40
2019-02-24T22:05:51.154Z,28.30
2019-02-24T22:08:17.578Z,28.40
2019-02-24T22:10:43.946Z,28.40
2019-02-24T22:13:10.246Z,28.40
2019-02-24T22:15:36.985Z,28.50
2019-02-24T22:18:04.342Z,28.50
2019-02-24T22:20:31.194Z,28.50
2019-02-24T22:22:57.971Z,28.90
2019-02-24T22:28:06.455Z,28.80
2019-02-24T22:30:33.433Z,28.80
2019-02-24T22:32:59.910Z,28.80
2019-02-24T22:35:26.574Z,28.90
2019-02-24T22:37:52.843Z,28.90
2019-02-24T22:40:19.452Z,28.90
2019-02-24T22:42:45.818Z,29.00
2019-02-24T22:45:16.987Z,29.00
2019-02-24T22:47:43.706Z,29.00
2019-02-24T22:50:10.731Z,29.00
2019-02-24T22:52:37.108Z,29.00
2019-02-24T22:55:05.406Z,29.00
2019-02-24T22:57:31.687Z,29.10
2019-02-24T22:59:58.339Z,29.10
2019-02-24T23:02:24.806Z,29.20
2019-02-24T23:04:51.203Z,29.20
2019-02-24T23:07:17.687Z,29.30
2019-02-24T23:09:43.990Z,29.30
2019-02-24T23:12:10.262Z,29.30
2019-02-24T23:14:36.671Z,29.40
2019-02-24T23:17:03.266Z,29.40
2019-02-24T23:19:29.641Z,29.50
2019-02-24T23:21:56.199Z,29.50
2019-02-24T23:24:24.163Z,29.50
2019-02-24T23:26:50.714Z,29.50
2019-02-24T23:29:16.988Z,29.50
2019-02-24T23:31:43.382Z,29.60
2019-02-24T23:34:09.867Z,29.60
2019-02-24T23:36:36.259Z,29.70
2019-02-24T23:39:04.828Z,29.70
2019-02-24T23:41:33.022Z,29.80
2019-02-24T23:43:59.295Z,29.80
2019-02-24T23:46:25.855Z,29.90
2019-02-24T23:48:52.378Z,29.90
2019-02-24T23:51:18.710Z,30.00
2019-02-24T23:53:44.994Z,30.00
2019-02-24T23:56:11.362Z,30.00
2019-02-24T23:58:37.660Z,30.00
